createdAt,value
2018-03-22T00:01:44.866Z,95723.91
2018-03-22T00:04:13.134Z,95721.79
2018-03-22T00:06:43.420Z,95720.72
2018-03-22T00:09:11.686Z,95714.92
2018-03-22T00:11:39.957Z,95714.91
2018-03-22T00:14:08.233Z,95717.59
2018-03-22T00:16:36.497Z,95719.83
2018-03-22T00:19:04.763Z,95715.36
2018-03-22T00:21:33.797Z,95716.55
2018-03-22T00:24:02.053Z,95713.46
2018-03-22T00:26:30.325Z,95705.61
2018-03-22T00:28:59.365Z,95709.17
2018-03-22T00:31:27.627Z,95703.36
2018-03-22T00:33:55.893Z,95703.80
2018-03-22T00:36:24.173Z,95703.86
2018-03-22T00:38:52.580Z,95701.73
2018-03-22T00:41:20.833Z,95698.25
2018-03-22T00:43:49.892Z,95689.51
2018-03-22T00:46:18.160Z,95696.42
2018-03-22T00:48:46.420Z,95689.97
2018-03-22T00:51:14.949Z,95685.24
2018-03-22T00:53:43.247Z,95685.61
2018-03-22T00:56:11.469Z,95675.31
2018-03-22T00:58:39.732Z,95672.28
2018-03-22T01:01:07.988Z,95671.67
2018-03-22T01:03:37.028Z,95667.35
2018-03-22T01:06:05.297Z,95658.16
2018-03-22T01:08:33.694Z,95652.73
2018-03-22T01:11:01.958Z,95642.97
2018-03-22T01:13:30.224Z,95637.59
2018-03-22T01:15:58.479Z,95633.73
2018-03-22T01:18:27.211Z,95637.13
2018-03-22T01:20:55.472Z,95624.42
2018-03-22T01:23:24.517Z,95623.09
2018-03-22T01:25:52.785Z,95620.16
2018-03-22T01:28:21.061Z,95628.23
2018-03-22T01:30:49.312Z,95626.53
2018-03-22T01:33:18.353Z,95621.42
2018-03-22T01:35:46.620Z,95616.78
2018-03-22T01:38:14.881Z,95613.46
2018-03-22T01:40:43.153Z,95615.85
2018-03-22T01:43:12.183Z,95612.03
2018-03-22T01:45:40.442Z,95607.27
2018-03-22T01:48:08.705Z,95612.72
2018-03-22T01:50:38.994Z,95617.06
2018-03-22T01:53:13.838Z,95606.50
2018-03-22T01:55:42.103Z,95598.77
2018-03-22T01:58:10.380Z,95597.88
2018-03-22T02:00:38.635Z,95599.83
2018-03-22T02:03:06.897Z,95596.69
2018-03-22T02:05:35.173Z,95595.48
2018-03-22T02:08:04.197Z,95592.08
2018-03-22T02:10:32.936Z,95592.40
2018-03-22T02:13:01.193Z,95587.39
2018-03-22T02:15:29.448Z,95588.27
2018-03-22T02:17:57.728Z,95582.59
2018-03-22T02:20:25.998Z,95577.84
2018-03-22T02:22:54.264Z,95574.42
2018-03-22T02:25:22.520Z,95568.67
2018-03-22T02:27:50.800Z,95570.69
2018-03-22T02:30:19.069Z,95566.39
2018-03-22T02:32:47.324Z,95561.38
2018-03-22T02:35:15.592Z,95556.64
2018-03-22T02:37:43.868Z,95554.84
2018-03-22T02:40:13.037Z,95557.92
2018-03-22T02:42:42.084Z,95550.64
2018-03-22T02:45:10.338Z,95554.01
2018-03-22T02:47:38.599Z,95552.39
2018-03-22T02:50:07.624Z,95550.13
2018-03-22T02:52:35.909Z,95553.96
2018-03-22T02:55:04.188Z,95541.89
2018-03-22T02:57:32.459Z,95546.72
2018-03-22T03:00:00.725Z,95546.74
2018-03-22T03:02:30.552Z,95545.16
2018-03-22T03:04:58.830Z,95543.08
2018-03-22T03:07:27.846Z,95535.22
2018-03-22T03:09:56.112Z,95530.58
2018-03-22T03:12:24.383Z,95526.16
2018-03-22T03:14:53.401Z,95530.91
2018-03-22T03:17:21.676Z,95518.70
2018-03-22T03:19:49.958Z,95524.34
2018-03-22T03:22:18.228Z,95524.78
2018-03-22T03:24:46.490Z,95524.52
2018-03-22T03:27:15.508Z,95527.15
2018-03-22T03:29:43.788Z,95523.06
2018-03-22T03:32:12.067Z,95519.00
2018-03-22T03:34:41.076Z,95525.86
2018-03-22T03:37:09.353Z,95524.27
2018-03-22T03:39:37.621Z,95519.63
2018-03-22T03:42:06.616Z,95520.99
2018-03-22T03:44:34.885Z,95524.20
2018-03-22T03:47:03.905Z,95529.44
2018-03-22T03:49:32.176Z,95524.84
2018-03-22T03:52:01.202Z,95516.05
2018-03-22T03:54:29.472Z,95512.75
2018-03-22T03:56:57.721Z,95508.94
2018-03-22T03:59:26.758Z,95503.58
2018-03-22T04:01:55.010Z,95508.81
2018-03-22T04:04:24.039Z,95500.84
2018-03-22T04:06:52.308Z,95505.11
2018-03-22T04:09:21.260Z,95505.09
2018-03-22T04:11:49.516Z,95501.20
2018-03-22T04:14:17.782Z,95494.37
2018-03-22T04:16:46.040Z,95489.37
2018-03-22T04:19:14.309Z,95493.59
2018-03-22T04:21:42.590Z,95486.83
2018-03-22T04:24:10.844Z,95481.28
2018-03-22T04:26:39.104Z,95479.37
2018-03-22T04:29:07.353Z,95473.04
2018-03-22T04:31:35.617Z,95472.19
2018-03-22T04:34:03.873Z,95469.50
2018-03-22T04:36:32.272Z,95461.12
2018-03-22T04:39:01.305Z,95462.27
2018-03-22T04:41:29.561Z,95460.53
2018-03-22T04:43:57.832Z,95461.51
2018-03-22T04:46:26.092Z,95457.27
2018-03-22T04:48:54.372Z,95453.84
2018-03-22T04:51:22.640Z,95452.08
2018-03-22T04:53:50.912Z,95448.45
2018-03-22T04:56:19.176Z,95455.03
2018-03-22T04:58:47.449Z,95453.12
2018-03-22T05:01:15.702Z,95446.06
2018-03-22T05:03:43.992Z,95447.11
2018-03-22T05:06:12.246Z,95442.47
2018-03-22T05:08:41.288Z,95445.08
2018-03-22T05:11:10.830Z,95446.98
2018-03-22T05:13:39.092Z,95446.14
2018-03-22T05:16:07.440Z,95438.34
2018-03-22T05:18:35.750Z,95437.77
2018-03-22T05:21:04.009Z,95437.19
2018-03-22T05:23:32.287Z,95437.05
2018-03-22T05:26:00.567Z,95424.27
2018-03-22T05:28:28.828Z,95419.34
2018-03-22T05:30:57.086Z,95422.88
2018-03-22T05:33:25.364Z,95422.34
2018-03-22T05:35:53.603Z,95417.12
2018-03-22T05:38:21.865Z,95417.06
2018-03-22T05:40:50.140Z,95414.75
2018-03-22T05:43:18.402Z,95414.88
2018-03-22T05:45:47.431Z,95413.45
2018-03-22T05:48:15.691Z,95408.56
2018-03-22T05:50:43.975Z,95411.95
2018-03-22T05:53:12.228Z,95407.72
2018-03-22T05:55:40.484Z,95403.55
2018-03-22T05:58:08.757Z,95402.86
2018-03-22T06:00:37.031Z,95398.41
2018-03-22T06:03:05.294Z,95398.96
2018-03-22T06:05:33.561Z,95386.27
2018-03-22T06:08:01.828Z,95389.01
2018-03-22T06:10:30.857Z,95390.89
2018-03-22T06:12:59.125Z,95377.02
2018-03-22T06:15:27.391Z,95368.63
2018-03-22T06:17:55.656Z,95358.55
2018-03-22T06:20:24.682Z,95352.77
2018-03-22T06:22:52.944Z,95357.55
2018-03-22T06:25:21.976Z,95345.14
2018-03-22T06:27:50.232Z,95347.67
2018-03-22T06:30:18.484Z,95346.39
2018-03-22T06:32:46.867Z,95349.16
2018-03-22T06:35:15.061Z,95344.64
2018-03-22T06:37:44.077Z,95344.77
2018-03-22T06:40:12.338Z,95330.91
2018-03-22T06:42:41.351Z,95335.50
2018-03-22T06:45:09.605Z,95329.08
2018-03-22T06:47:38.633Z,95314.98
2018-03-22T06:50:06.886Z,95327.14
2018-03-22T06:52:35.529Z,95330.74
2018-03-22T06:55:03.788Z,95332.33
2018-03-22T06:57:32.034Z,95331.45
2018-03-22T07:00:01.064Z,95336.79
2018-03-22T07:02:29.309Z,95328.56
2018-03-22T07:04:58.165Z,95327.16
2018-03-22T07:07:26.431Z,95328.22
2018-03-22T07:09:54.681Z,95327.64
2018-03-22T07:12:23.692Z,95325.64
2018-03-22T07:14:51.943Z,95317.08
2018-03-22T07:17:20.190Z,95312.31
2018-03-22T07:19:48.458Z,95310.69
2018-03-22T07:22:16.700Z,95317.08
2018-03-22T07:24:45.714Z,95306.49
2018-03-22T07:27:13.966Z,95292.97
2018-03-22T07:29:42.993Z,95298.63
2018-03-22T07:32:11.249Z,95294.30
2018-03-22T07:34:40.260Z,95287.98
2018-03-22T07:37:08.518Z,95294.12
2018-03-22T07:39:37.573Z,95287.39
2018-03-22T07:42:05.816Z,95279.84
2018-03-22T07:44:39.596Z,95285.68
2018-03-22T07:47:07.839Z,95285.84
2018-03-22T07:49:36.089Z,95281.37
2018-03-22T07:52:04.352Z,95274.83
2018-03-22T07:54:33.365Z,95270.38
2018-03-22T07:57:01.637Z,95270.47
2018-03-22T07:59:29.880Z,95269.56
2018-03-22T08:01:58.128Z,95266.30
2018-03-22T08:04:26.386Z,95264.53
2018-03-22T08:06:54.734Z,95263.34
2018-03-22T08:09:22.992Z,95268.31
2018-03-22T08:11:51.236Z,95271.38
2018-03-22T08:14:19.489Z,95260.24
2018-03-22T08:16:48.511Z,95263.88
2018-03-22T08:19:16.771Z,95257.32
2018-03-22T08:21:45.814Z,95252.66
2018-03-22T08:24:14.056Z,95244.00
2018-03-22T08:26:42.310Z,95244.23
2018-03-22T08:29:11.665Z,95243.24
2018-03-22T08:31:39.917Z,95247.08
2018-03-22T08:34:08.185Z,95239.91
2018-03-22T08:36:38.447Z,95236.34
2018-03-22T08:39:06.700Z,95235.80
2018-03-22T08:41:35.712Z,95231.46
2018-03-22T08:44:03.984Z,95234.23
2018-03-22T08:46:32.232Z,95232.96
2018-03-22T08:49:00.501Z,95235.72
2018-03-22T08:51:28.753Z,95231.58
2018-03-22T08:53:56.990Z,95234.72
2018-03-22T08:56:26.014Z,95230.81
2018-03-22T08:58:54.257Z,95234.03
2018-03-22T09:01:23.272Z,95228.91
2018-03-22T09:03:52.307Z,95226.05
2018-03-22T09:06:20.648Z,95225.85
2018-03-22T09:08:49.753Z,95213.11
2018-03-22T09:11:18.768Z,95214.49
2018-03-22T09:13:47.060Z,95221.64
2018-03-22T09:16:15.322Z,95213.13
2018-03-22T09:18:43.592Z,95212.20
2018-03-22T09:21:12.613Z,95203.42
2018-03-22T09:23:40.852Z,95201.09
2018-03-22T09:26:09.859Z,95201.22
2018-03-22T09:28:40.124Z,95197.78
2018-03-22T09:31:08.366Z,95195.59
2018-03-22T09:33:37.383Z,95195.24
2018-03-22T09:36:05.652Z,95190.02
2018-03-22T09:38:34.717Z,95190.81
2018-03-22T09:41:02.921Z,95184.23
2018-03-22T09:43:31.939Z,95188.53
2018-03-22T09:46:00.187Z,95177.23
2018-03-22T09:48:29.210Z,95176.56
2018-03-22T09:50:57.449Z,95175.44
2018-03-22T09:53:25.702Z,95168.93
2018-03-22T09:55:54.728Z,95168.18
2018-03-22T09:58:22.985Z,95159.09
2018-03-22T10:00:51.237Z,95153.55
2018-03-22T10:03:19.487Z,95151.91
2018-03-22T10:05:48.712Z,95148.98
2018-03-22T10:08:17.000Z,95145.50
2018-03-22T10:10:45.275Z,95134.30
2018-03-22T10:13:13.512Z,95132.79
2018-03-22T10:15:41.767Z,95121.94
2018-03-22T10:18:10.020Z,95122.30
2018-03-22T10:20:38.261Z,95118.62
2018-03-22T10:23:07.285Z,95113.48
2018-03-22T10:25:35.529Z,95107.54
2018-03-22T10:28:03.796Z,95107.92
2018-03-22T10:30:32.057Z,95105.06
2018-03-22T10:33:00.312Z,95096.44
2018-03-22T10:35:28.556Z,95093.38
2018-03-22T10:37:57.581Z,95082.86
2018-03-22T10:40:25.828Z,95080.38
2018-03-22T10:42:54.086Z,95079.41
2018-03-22T10:45:22.333Z,95077.23
2018-03-22T10:47:51.412Z,95069.63
2018-03-22T10:50:20.440Z,95069.55
2018-03-22T10:52:48.688Z,95070.08
2018-03-22T10:55:17.716Z,95070.17
2018-03-22T10:57:45.981Z,95055.41
2018-03-22T11:00:19.649Z,95057.83
2018-03-22T11:02:53.672Z,95053.02
2018-03-22T11:05:22.706Z,95046.36
2018-03-22T11:07:50.952Z,95047.28
2018-03-22T11:10:19.968Z,95042.20
2018-03-22T11:12:48.232Z,95034.80
2018-03-22T11:15:17.244Z,95021.45
2018-03-22T11:17:45.517Z,95020.84
2018-03-22T11:20:14.526Z,95030.89
2018-03-22T11:22:42.772Z,95012.64
2018-03-22T11:25:11.696Z,95007.72
2018-03-22T11:27:39.937Z,95012.12
2018-03-22T11:30:08.200Z,95013.14
2018-03-22T11:32:36.463Z,95007.81
2018-03-22T11:35:04.716Z,95005.64
2018-03-22T11:37:33.748Z,95001.89
2018-03-22T11:40:02.009Z,94994.53
2018-03-22T11:42:30.254Z,94984.17
2018-03-22T11:44:59.277Z,94984.56
2018-03-22T11:47:27.520Z,94983.14
2018-03-22T11:49:55.790Z,94978.77
2018-03-22T11:52:24.085Z,94976.28
2018-03-22T11:54:52.324Z,94975.88
2018-03-22T11:57:20.593Z,94964.61
2018-03-22T11:59:48.841Z,94954.05
2018-03-22T12:02:17.840Z,94952.03
2018-03-22T12:04:46.866Z,94939.32
2018-03-22T12:07:15.143Z,94933.02
2018-03-22T12:09:43.382Z,94929.35
2018-03-22T12:12:11.633Z,94923.23
2018-03-22T12:14:39.881Z,94919.30
2018-03-22T12:17:08.704Z,94919.25
2018-03-22T12:19:36.943Z,94909.20
2018-03-22T12:22:05.206Z,94905.44
2018-03-22T12:24:34.256Z,94901.87
2018-03-22T12:27:03.237Z,94894.91
2018-03-22T12:29:31.489Z,94890.14
2018-03-22T12:31:59.763Z,94894.91
2018-03-22T12:34:28.786Z,94892.64
2018-03-22T12:36:57.028Z,94886.87
2018-03-22T12:39:26.051Z,94890.86
2018-03-22T12:41:55.056Z,94877.17
2018-03-22T12:44:23.316Z,94879.45
2018-03-22T12:46:52.338Z,94872.11
2018-03-22T12:49:20.580Z,94866.05
2018-03-22T12:51:48.852Z,94870.66
2018-03-22T12:54:17.097Z,94863.05
2018-03-22T12:56:45.352Z,94867.56
2018-03-22T12:59:13.620Z,94865.44
2018-03-22T13:01:41.872Z,94857.92
2018-03-22T13:04:10.128Z,94861.45
2018-03-22T13:06:38.378Z,94848.37
2018-03-22T13:09:06.640Z,94844.05
2018-03-22T13:11:35.680Z,94849.17
2018-03-22T13:14:03.977Z,94840.59
2018-03-22T13:16:32.191Z,94831.77
2018-03-22T13:19:01.513Z,94825.37
2018-03-22T13:21:29.772Z,94819.82
2018-03-22T13:23:58.794Z,94818.67
2018-03-22T13:26:27.032Z,94814.84
2018-03-22T13:28:55.288Z,94811.17
2018-03-22T13:31:23.538Z,94811.23
2018-03-22T13:33:51.768Z,94804.46
2018-03-22T13:36:20.023Z,94807.72
2018-03-22T13:38:48.262Z,94803.44
2018-03-22T13:41:17.276Z,94804.58
2018-03-22T13:43:45.534Z,94810.39
2018-03-22T13:46:14.549Z,94798.86
2018-03-22T13:48:42.816Z,94796.73
2018-03-22T13:51:11.098Z,94791.91
2018-03-22T13:53:40.100Z,94792.63
2018-03-22T13:56:08.348Z,94793.48
2018-03-22T13:58:36.585Z,94789.48
2018-03-22T14:01:04.853Z,94790.06
2018-03-22T14:03:33.084Z,94790.25
2018-03-22T14:06:01.324Z,94791.67
2018-03-22T14:08:29.583Z,94783.70
2018-03-22T14:10:57.840Z,94779.65
2018-03-22T14:13:26.848Z,94779.55
2018-03-22T14:15:55.864Z,94779.66
2018-03-22T14:18:24.113Z,94775.49
2018-03-22T14:20:53.128Z,94769.97
2018-03-22T14:23:21.375Z,94759.29
2018-03-22T14:25:49.628Z,94756.11
2018-03-22T14:28:17.884Z,94753.89
2018-03-22T14:30:47.365Z,94749.39
2018-03-22T14:33:17.620Z,94746.99
2018-03-22T14:35:45.863Z,94745.98
2018-03-22T14:38:14.872Z,94739.02
2018-03-22T14:40:43.897Z,94738.48
2018-03-22T14:43:12.875Z,94730.55
2018-03-22T14:45:41.144Z,94723.37
2018-03-22T14:48:10.168Z,94730.86
2018-03-22T14:50:38.418Z,94726.63
2018-03-22T14:53:07.428Z,94727.30
2018-03-22T14:55:36.545Z,94723.02
2018-03-22T14:58:04.792Z,94722.30
2018-03-22T15:00:33.854Z,94713.72
2018-03-22T15:03:02.075Z,94716.28
2018-03-22T15:05:31.077Z,94711.87
2018-03-22T15:08:00.089Z,94710.99
2018-03-22T15:10:28.370Z,94705.08
2018-03-22T15:12:56.608Z,94704.86
2018-03-22T15:15:26.564Z,94701.48
2018-03-22T15:17:54.816Z,94699.84
2018-03-22T15:20:23.828Z,94699.91
2018-03-22T15:22:52.849Z,94700.94
2018-03-22T15:25:21.094Z,94690.92
2018-03-22T15:27:49.332Z,94693.50
2018-03-22T15:30:17.582Z,94696.01
2018-03-22T15:32:45.831Z,94700.77
2018-03-22T15:35:14.861Z,94701.66
2018-03-22T15:37:43.104Z,94703.58
2018-03-22T15:40:11.368Z,94699.64
2018-03-22T15:42:39.610Z,94702.05
2018-03-22T15:45:07.849Z,94698.98
2018-03-22T15:47:36.117Z,94697.45
2018-03-22T15:50:04.336Z,94701.03
2018-03-22T15:52:32.580Z,94708.73
2018-03-22T15:55:00.863Z,94699.52
2018-03-22T15:57:29.105Z,94704.78
2018-03-22T15:59:57.345Z,94700.76
2018-03-22T16:02:26.372Z,94704.53
2018-03-22T16:04:54.622Z,94697.52
2018-03-22T16:07:24.860Z,94699.19
2018-03-22T16:09:53.118Z,94696.36
2018-03-22T16:12:22.128Z,94697.95
2018-03-22T16:14:51.162Z,94702.85
2018-03-22T16:17:19.409Z,94699.66
2018-03-22T16:19:47.672Z,94698.31
2018-03-22T16:22:16.691Z,94699.66
2018-03-22T16:24:44.960Z,94701.33
2018-03-22T16:27:13.970Z,94710.61
2018-03-22T16:29:42.233Z,94706.97
2018-03-22T16:32:11.257Z,94712.21
2018-03-22T16:34:39.511Z,94713.43
2018-03-22T16:37:08.520Z,94718.17
2018-03-22T16:39:36.790Z,94716.50
2018-03-22T16:42:05.792Z,94722.17
2018-03-22T16:44:34.805Z,94719.87
2018-03-22T16:47:03.067Z,94720.36
2018-03-22T16:49:32.131Z,94732.59
2018-03-22T16:52:00.333Z,94734.72
2018-03-22T16:54:28.614Z,94747.75
2018-03-22T16:56:57.620Z,94750.34
2018-03-22T16:59:26.628Z,94749.87
2018-03-22T17:01:54.884Z,94754.35
2018-03-22T17:04:23.133Z,94745.28
2018-03-22T17:06:51.378Z,94751.58
2018-03-22T17:09:19.648Z,94752.26
2018-03-22T17:11:48.652Z,94744.63
2018-03-22T17:14:16.905Z,94740.17
2018-03-22T17:16:45.923Z,94738.07
2018-03-22T17:19:14.177Z,94733.59
2018-03-22T17:21:42.412Z,94730.03
2018-03-22T17:24:10.672Z,94734.37
2018-03-22T17:26:38.943Z,94733.87
2018-03-22T17:29:07.955Z,94732.36
2018-03-22T17:31:36.191Z,94726.08
2018-03-22T17:34:04.460Z,94721.95
2018-03-22T17:36:32.736Z,94709.28
2018-03-22T17:39:00.973Z,94705.59
2018-03-22T17:41:30.465Z,94700.38
2018-03-22T17:43:59.468Z,94705.29
2018-03-22T17:46:27.709Z,94698.55
2018-03-22T17:48:55.962Z,94701.56
2018-03-22T17:51:24.224Z,94698.44
2018-03-22T17:53:53.222Z,94701.27
2018-03-22T17:56:22.320Z,94700.06
2018-03-22T17:58:50.581Z,94705.58
2018-03-22T18:01:19.588Z,94707.95
2018-03-22T18:03:47.850Z,94702.38
2018-03-22T18:06:16.847Z,94698.45
2018-03-22T18:08:45.866Z,94703.16
2018-03-22T18:11:14.115Z,94704.66
2018-03-22T18:13:42.360Z,94704.30
2018-03-22T18:16:10.606Z,94701.47
2018-03-22T18:18:38.860Z,94709.13
2018-03-22T18:21:07.883Z,94710.98
2018-03-22T18:23:36.136Z,94712.27
2018-03-22T18:26:05.168Z,94713.95
2018-03-22T18:28:33.404Z,94717.08
2018-03-22T18:31:01.651Z,94723.28
2018-03-22T18:33:29.908Z,94718.30
2018-03-22T18:35:58.163Z,94722.27
2018-03-22T18:38:27.164Z,94727.45
2018-03-22T18:40:56.178Z,94729.10
2018-03-22T18:43:24.424Z,94726.53
2018-03-22T18:45:52.680Z,94728.45
2018-03-22T18:48:20.936Z,94732.84
2018-03-22T18:50:49.202Z,94726.94
2018-03-22T18:53:17.434Z,94722.75
2018-03-22T18:55:45.686Z,94726.99
2018-03-22T18:58:13.932Z,94727.21
2018-03-22T19:00:42.197Z,94730.44
2018-03-22T19:03:11.206Z,94731.12
2018-03-22T19:05:40.222Z,94734.04
2018-03-22T19:08:08.468Z,94740.03
2018-03-22T19:10:37.489Z,94740.58
2018-03-22T19:13:05.736Z,94732.52
2018-03-22T19:15:33.978Z,94732.25
2018-03-22T19:18:02.217Z,94729.00
2018-03-22T19:20:31.275Z,94730.27
2018-03-22T19:22:59.509Z,94728.16
2018-03-22T19:25:27.769Z,94723.10
2018-03-22T19:27:56.793Z,94722.11
2018-03-22T19:30:25.023Z,94722.67
2018-03-22T19:32:53.268Z,94718.61
2018-03-22T19:35:21.532Z,94716.85
2018-03-22T19:37:49.769Z,94717.56
2018-03-22T19:40:18.015Z,94718.17
2018-03-22T19:42:46.291Z,94717.51
2018-03-22T19:45:14.644Z,94709.68
2018-03-22T19:47:42.888Z,94713.38
2018-03-22T19:50:11.153Z,94703.62
2018-03-22T19:52:39.425Z,94703.06
2018-03-22T19:55:07.687Z,94708.27
2018-03-22T19:57:35.960Z,94709.41
2018-03-22T20:00:04.218Z,94712.84
2018-03-22T20:02:33.243Z,94707.28
2018-03-22T20:05:01.513Z,94712.29
2018-03-22T20:07:29.762Z,94718.04
2018-03-22T20:09:58.784Z,94708.89
2018-03-22T20:12:27.035Z,94713.91
2018-03-22T20:14:56.892Z,94712.00
2018-03-22T20:17:25.141Z,94706.95
2018-03-22T20:19:54.147Z,94708.50
2018-03-22T20:22:22.407Z,94714.44
2018-03-22T20:24:51.424Z,94708.92
2018-03-22T20:27:20.467Z,94699.14
2018-03-22T20:29:48.718Z,94688.27
2018-03-22T20:32:16.963Z,94683.77
2018-03-22T20:34:45.218Z,94680.66
2018-03-22T20:37:13.530Z,94681.67
2018-03-22T20:39:42.544Z,94681.77
2018-03-22T20:42:10.796Z,94687.11
2018-03-22T20:44:39.060Z,94681.13
2018-03-22T20:47:07.326Z,94684.12
2018-03-22T20:49:35.580Z,94686.55
2018-03-22T20:52:03.842Z,94683.55
2018-03-22T20:54:32.873Z,94683.94
2018-03-22T20:57:01.133Z,94681.34
2018-03-22T20:59:29.400Z,94681.86
2018-03-22T21:01:58.428Z,94680.81
2018-03-22T21:04:26.671Z,94675.58
2018-03-22T21:06:55.706Z,94679.84
2018-03-22T21:09:23.961Z,94673.30
2018-03-22T21:11:52.989Z,94677.12
2018-03-22T21:14:21.256Z,94666.13
2018-03-22T21:16:49.500Z,94669.53
2018-03-22T21:19:18.522Z,94661.16
2018-03-22T21:21:46.802Z,94660.48
2018-03-22T21:24:15.135Z,94655.48
2018-03-22T21:26:43.369Z,94652.89
2018-03-22T21:29:12.391Z,94649.89
2018-03-22T21:31:40.631Z,94653.21
2018-03-22T21:34:08.880Z,94644.77
2018-03-22T21:36:37.136Z,94642.68
2018-03-22T21:39:06.099Z,94638.41
2018-03-22T21:41:35.120Z,94639.10
2018-03-22T21:44:15.993Z,94634.58
2018-03-22T21:46:44.240Z,94632.25
2018-03-22T21:49:12.509Z,94635.81
2018-03-22T21:51:41.507Z,94638.94
2018-03-22T21:54:10.542Z,94637.31
2018-03-22T21:56:38.809Z,94632.14
2018-03-22T21:59:07.052Z,94618.88
2018-03-22T22:01:36.079Z,94623.41
2018-03-22T22:04:04.336Z,94623.97
2018-03-22T22:06:33.345Z,94614.52
2018-03-22T22:09:01.613Z,94616.56
2018-03-22T22:11:30.618Z,94614.84
2018-03-22T22:13:59.633Z,94620.77
2018-03-22T22:16:27.888Z,94615.61
2018-03-22T22:18:57.834Z,94608.73
2018-03-22T22:21:26.095Z,94601.87
2018-03-22T22:23:54.340Z,94597.20
2018-03-22T22:26:22.580Z,94595.98
2018-03-22T22:28:50.832Z,94592.88
2018-03-22T22:31:19.845Z,94593.53
2018-03-22T22:33:48.112Z,94585.48
2018-03-22T22:36:17.120Z,94583.39
2018-03-22T22:38:45.387Z,94577.25
2018-03-22T22:41:14.409Z,94588.25
2018-03-22T22:43:42.652Z,94577.75
2018-03-22T22:46:11.687Z,94576.59
2018-03-22T22:48:39.968Z,94576.84
2018-03-22T22:51:08.827Z,94573.72
2018-03-22T22:53:37.853Z,94568.13
2018-03-22T22:56:06.088Z,94563.38
2018-03-22T22:58:34.375Z,94557.67
2018-03-22T23:01:02.596Z,94561.80
2018-03-22T23:03:30.846Z,94553.69
2018-03-22T23:05:59.869Z,94556.45
2018-03-22T23:08:28.113Z,94547.92
2018-03-22T23:10:56.371Z,94546.60
2018-03-22T23:13:24.628Z,94540.52
2018-03-22T23:15:52.911Z,94541.08
2018-03-22T23:18:21.143Z,94541.39
2018-03-22T23:20:50.176Z,94536.36
2018-03-22T23:23:18.452Z,94526.67
2018-03-22T23:25:46.717Z,94526.19
2018-03-22T23:28:15.731Z,94523.05
2018-03-22T23:30:43.996Z,94523.06
2018-03-22T23:33:12.268Z,94522.03
2018-03-22T23:35:41.293Z,94518.99
2018-03-22T23:38:09.556Z,94515.76
2018-03-22T23:40:37.832Z,94512.28
2018-03-22T23:43:06.101Z,94509.80
2018-03-22T23:45:34.364Z,94515.20
2018-03-22T23:48:02.616Z,94513.34
2018-03-22T23:50:30.871Z,94511.53
2018-03-22T23:52:59.128Z,94518.06
2018-03-22T23:55:28.152Z,94512.92
2018-03-22T23:57:56.413Z,94504.25
